Main page
METAR-TAF:

METAR-TAF

Airports :

Mary International Airport

Mary, Turkmenistan

latitude: 37-36-24N, longitude: 061-54-05E, elevation: 222 m

Current weather observation

The report was made 43 minutes ago, at 08:00 UTC
Wind 8 kt from the East/Southeast
Temperature 35°C
Humidity 27%
Pressure 1010 hPa
Visibility 10 km or more
no clouds below 1500 m and no cumulonimbus

METAR: UTAM 240800Z 11008KT CAVOK 35/13 Q1010 R88/CLRD70 NOSIG

Time: 13:43 (08:43 UTC)

Forecast

The report was made 4 hours and 13 minutes ago, at 04:30 UTC
Forecast valid from 24 at 06 UTC to 25 at 06 UTC
Wind 12 kt from the East
Visibility 10 km or more
no clouds below 1500 m and no cumulonimbus
Temporary
from 24 at 06 UTC to 24 at 14 UTC
Wind 14 kt from the East/Southeast
Visibility: 5000 m
Becoming
from 24 at 14 UTC to 24 at 15 UTC
Wind 10 kt from the East/Northeast
Visibility: 6000 m

TAF: UTAM 240430Z 2406/2506 09012KT CAVOK TEMPO 2406/2414 11014KT 5000 BECMG 2414/2415 07010KT 6000 NSC

Weather observations and forecasts of more than 4000 airports (METAR and TAF reports).

The available stations are represented by yellow and red dots on the map.

Hover mouse over dot to see the name of the station.

Then click to see weather observations and forecasts.

To change the map : click on the green buttons with a black cross to zoom in, on the green button with a dash to zoom out, or on the green arrows for adjacent maps.


METAR-TAF: